createdAt,value
2023-05-21T00:01:26.138Z,40.74
2023-05-21T00:06:29.753Z,40.81
2023-05-21T00:11:33.745Z,42.50
2023-05-21T00:16:38.714Z,42.96
2023-05-21T00:21:42.171Z,41.80
2023-05-21T00:26:45.833Z,41.77
2023-05-21T00:31:52.201Z,42.46
2023-05-21T00:36:55.782Z,42.86
2023-05-21T00:42:00.592Z,42.89
2023-05-21T00:47:06.497Z,43.35
2023-05-21T00:52:10.081Z,42.55
2023-05-21T00:57:13.786Z,42.64
2023-05-21T01:02:19.865Z,43.61
2023-05-21T01:07:23.420Z,44.21
2023-05-21T01:12:27.096Z,43.92
2023-05-21T01:17:34.159Z,43.88
2023-05-21T01:22:39.774Z,43.52
2023-05-21T01:27:45.270Z,43.45
2023-05-21T01:32:50.782Z,44.14
2023-05-21T01:37:58.304Z,43.75
2023-05-21T01:43:05.036Z,43.68
2023-05-21T01:48:08.890Z,43.37
2023-05-21T01:53:13.026Z,43.53
2023-05-21T01:58:18.385Z,44.98
2023-05-21T02:03:23.029Z,43.42
2023-05-21T02:08:27.305Z,43.28
2023-05-21T02:13:33.232Z,44.16
2023-05-21T02:18:37.253Z,43.87
2023-05-21T02:23:42.044Z,43.58
2023-05-21T02:28:46.900Z,43.02
2023-05-21T02:33:50.521Z,43.48
2023-05-21T02:38:54.642Z,43.18
2023-05-21T02:43:59.556Z,44.03
2023-05-21T02:49:03.304Z,45.11
2023-05-21T02:54:07.127Z,44.81
2023-05-21T02:59:13.189Z,45.04
2023-05-21T03:04:17.177Z,44.97
2023-05-21T03:09:21.605Z,43.74
2023-05-21T03:14:26.516Z,43.68
2023-05-21T03:19:30.640Z,43.66
2023-05-21T03:24:35.318Z,44.09
2023-05-21T03:29:40.551Z,44.88
2023-05-21T03:34:45.459Z,44.11
2023-05-21T03:39:55.080Z,44.56
2023-05-21T03:45:00.166Z,43.77
2023-05-21T03:50:23.595Z,44.33
2023-05-21T03:55:27.202Z,43.72
2023-05-21T04:00:34.544Z,43.78
2023-05-21T04:05:38.424Z,44.24
2023-05-21T04:10:42.102Z,44.40
2023-05-21T04:15:47.488Z,44.82
2023-05-21T04:20:51.003Z,45.33
2023-05-21T04:25:54.598Z,46.38
2023-05-21T04:31:00.341Z,45.08
2023-05-21T04:36:04.325Z,44.25
2023-05-21T04:41:10.780Z,43.92
2023-05-21T04:46:16.025Z,44.58
2023-05-21T04:51:20.000Z,43.94
2023-05-21T04:56:23.489Z,43.84
2023-05-21T05:01:29.488Z,43.83
2023-05-21T05:06:33.174Z,43.91
2023-05-21T05:11:36.719Z,43.10
2023-05-21T05:16:42.920Z,43.12
2023-05-21T05:21:46.666Z,43.50
2023-05-21T05:26:50.869Z,43.83
2023-05-21T05:31:55.910Z,42.70
2023-05-21T05:36:59.557Z,43.56
2023-05-21T05:42:03.284Z,43.42
2023-05-21T05:47:10.830Z,42.89
2023-05-21T05:52:15.890Z,41.80
2023-05-21T05:57:20.197Z,41.81
2023-05-21T06:02:28.091Z,42.43
2023-05-21T06:07:31.983Z,42.20
2023-05-21T06:12:35.745Z,42.37
2023-05-21T06:17:40.643Z,41.11
2023-05-21T06:22:44.236Z,41.54
2023-05-21T06:27:47.946Z,41.77
2023-05-21T06:32:58.531Z,41.28
2023-05-21T06:38:02.444Z,41.15
2023-05-21T06:43:06.047Z,40.62
2023-05-21T06:48:30.303Z,40.00
2023-05-21T06:53:34.812Z,39.83
2023-05-21T06:58:38.341Z,39.69
2023-05-21T07:03:43.273Z,39.38
2023-05-21T07:08:48.030Z,40.29
2023-05-21T07:13:51.586Z,39.73
2023-05-21T07:18:57.058Z,39.14
2023-05-21T07:24:00.893Z,39.55
2023-05-21T07:29:04.877Z,38.89
2023-05-21T07:34:10.070Z,38.91
2023-05-21T07:39:13.749Z,38.30
2023-05-21T07:44:19.101Z,37.98
2023-05-21T07:49:25.884Z,37.65
2023-05-21T07:54:29.464Z,38.41
2023-05-21T07:59:34.098Z,36.91
2023-05-21T08:04:40.910Z,37.15
2023-05-21T08:09:45.568Z,36.68
2023-05-21T08:14:49.637Z,36.11
2023-05-21T08:19:55.025Z,36.36
2023-05-21T08:24:58.715Z,36.23
2023-05-21T08:30:02.301Z,36.16
2023-05-21T08:35:08.784Z,36.27
2023-05-21T08:40:24.019Z,35.48
2023-05-21T08:45:28.238Z,35.48
2023-05-21T08:50:34.136Z,34.69
2023-05-21T08:55:44.553Z,35.26
2023-05-21T09:00:48.076Z,34.81
2023-05-21T09:05:53.349Z,34.25
2023-05-21T09:10:56.993Z,34.05
2023-05-21T09:16:07.589Z,33.25
2023-05-21T09:21:29.102Z,33.72
2023-05-21T09:26:36.818Z,33.40
2023-05-21T09:31:45.025Z,32.94
2023-05-21T09:36:52.355Z,32.46
2023-05-21T09:41:57.888Z,32.73
2023-05-21T09:47:03.462Z,32.83
2023-05-21T09:52:08.571Z,32.65
2023-05-21T09:57:12.051Z,32.91
2023-05-21T10:02:20.952Z,32.04
2023-05-21T10:07:27.270Z,32.13
2023-05-21T10:12:32.360Z,31.26
2023-05-21T10:17:36.044Z,31.15
2023-05-21T10:22:41.362Z,30.66
2023-05-21T10:27:45.556Z,30.04
2023-05-21T10:32:49.779Z,29.55
2023-05-21T10:37:55.541Z,29.47
2023-05-21T10:43:41.477Z,29.45
2023-05-21T10:48:58.705Z,28.24
2023-05-21T10:54:29.259Z,28.54
2023-05-21T10:59:38.848Z,27.33
2023-05-21T11:04:44.283Z,27.85
2023-05-21T11:09:51.153Z,27.77
2023-05-21T11:14:58.256Z,27.77
2023-05-21T11:20:05.681Z,28.03
2023-05-21T11:25:12.500Z,28.13
2023-05-21T11:30:17.056Z,27.43
2023-05-21T11:35:23.556Z,27.40
2023-05-21T11:40:30.558Z,26.95
2023-05-21T11:45:34.131Z,26.81
2023-05-21T11:50:37.981Z,26.27
2023-05-21T11:55:47.279Z,25.46
2023-05-21T12:00:52.034Z,25.84
2023-05-21T12:05:55.897Z,26.01
2023-05-21T12:11:01.741Z,26.05
2023-05-21T12:16:07.152Z,26.12
2023-05-21T12:21:12.384Z,26.02
2023-05-21T12:26:17.888Z,26.23
2023-05-21T12:31:21.884Z,27.06
2023-05-21T12:36:28.214Z,27.33
2023-05-21T12:41:33.075Z,28.06
2023-05-21T12:46:37.420Z,26.91
2023-05-21T12:51:41.233Z,26.49
2023-05-21T12:56:49.198Z,27.39
2023-05-21T13:01:54.084Z,27.39
2023-05-21T13:06:57.736Z,27.00
2023-05-21T13:12:02.645Z,26.75
2023-05-21T13:17:06.208Z,27.82
2023-05-21T13:22:10.303Z,26.57
2023-05-21T13:27:15.206Z,25.98
2023-05-21T13:32:19.405Z,25.83
2023-05-21T13:37:22.896Z,25.88
2023-05-21T13:42:28.130Z,25.65
2023-05-21T13:47:31.778Z,25.44
2023-05-21T13:52:35.398Z,26.17
2023-05-21T13:57:40.694Z,25.87
2023-05-21T14:02:45.425Z,26.60
2023-05-21T14:07:49.380Z,25.83
2023-05-21T14:12:59.194Z,25.90
2023-05-21T14:18:12.086Z,25.54
2023-05-21T14:23:16.093Z,25.72
2023-05-21T14:28:21.077Z,26.76
2023-05-21T14:33:24.682Z,26.45
2023-05-21T14:38:28.761Z,25.89
2023-05-21T14:43:33.879Z,26.40
2023-05-21T14:48:37.515Z,27.06
2023-05-21T14:53:41.173Z,26.44
2023-05-21T14:58:46.051Z,27.45
2023-05-21T15:03:52.227Z,27.05
2023-05-21T15:08:55.950Z,26.64
2023-05-21T15:14:00.986Z,27.02
2023-05-21T15:19:04.778Z,27.25
2023-05-21T15:24:08.304Z,26.97
2023-05-21T15:29:13.541Z,26.61
2023-05-21T15:34:17.982Z,25.70
2023-05-21T15:39:21.839Z,25.88
2023-05-21T15:44:27.382Z,26.49
2023-05-21T15:49:30.964Z,26.35
2023-05-21T15:54:34.548Z,25.57
2023-05-21T15:59:39.469Z,25.72
2023-05-21T16:04:43.347Z,24.36
2023-05-21T16:09:47.168Z,24.72
2023-05-21T16:14:52.943Z,25.17
2023-05-21T16:19:56.734Z,25.11
2023-05-21T16:25:00.403Z,24.96
2023-05-21T16:30:07.387Z,25.38
2023-05-21T16:35:13.395Z,24.66
2023-05-21T16:40:17.057Z,25.39
2023-05-21T16:45:22.124Z,25.62
2023-05-21T16:50:25.811Z,26.23
2023-05-21T16:55:29.386Z,25.71
2023-05-21T17:00:35.016Z,25.65
2023-05-21T17:05:38.786Z,26.04
2023-05-21T17:10:42.606Z,26.15
2023-05-21T17:15:47.640Z,25.98
2023-05-21T17:20:51.329Z,25.88
2023-05-21T17:25:54.946Z,26.10
2023-05-21T17:30:59.846Z,26.31
2023-05-21T17:36:03.545Z,26.51
2023-05-21T17:41:07.095Z,26.33
2023-05-21T17:46:16.588Z,26.82
2023-05-21T17:51:20.195Z,26.64
2023-05-21T17:56:23.804Z,27.37
2023-05-21T18:01:29.091Z,26.84
2023-05-21T18:06:32.962Z,27.21
2023-05-21T18:11:36.552Z,27.52
2023-05-21T18:16:44.112Z,27.81
2023-05-21T18:21:48.706Z,27.74
2023-05-21T18:26:52.321Z,28.14
2023-05-21T18:31:57.304Z,28.66
2023-05-21T18:37:00.821Z,28.96
2023-05-21T18:42:12.689Z,29.16
2023-05-21T18:47:19.162Z,29.80
2023-05-21T18:52:22.691Z,30.36
2023-05-21T18:57:26.248Z,30.63
2023-05-21T19:02:31.319Z,30.67
2023-05-21T19:07:35.089Z,32.22
2023-05-21T19:12:39.516Z,32.75
2023-05-21T19:17:44.690Z,33.03
2023-05-21T19:22:48.294Z,33.03
2023-05-21T19:27:52.824Z,32.99
2023-05-21T19:32:57.830Z,33.24
2023-05-21T19:38:04.190Z,33.36
2023-05-21T19:43:08.776Z,33.80
2023-05-21T19:48:13.792Z,33.81
2023-05-21T19:53:17.512Z,33.92
2023-05-21T19:58:23.657Z,34.36
2023-05-21T20:03:35.319Z,33.85
2023-05-21T20:08:38.874Z,34.30
2023-05-21T20:13:42.594Z,34.25
2023-05-21T20:18:47.979Z,34.08
2023-05-21T20:23:51.768Z,34.16
2023-05-21T20:28:55.505Z,34.31
2023-05-21T20:34:00.792Z,34.23
2023-05-21T20:39:07.948Z,35.36
2023-05-21T20:44:11.960Z,35.11
2023-05-21T20:49:17.801Z,34.78
2023-05-21T20:54:22.277Z,35.44
2023-05-21T20:59:27.541Z,34.77
2023-05-21T21:04:33.510Z,35.36
2023-05-21T21:09:37.734Z,35.06
2023-05-21T21:14:41.665Z,34.36
2023-05-21T21:19:46.931Z,34.57
2023-05-21T21:24:50.663Z,34.69
2023-05-21T21:29:54.517Z,33.75
2023-05-21T21:34:59.417Z,34.50
2023-05-21T21:40:03.370Z,34.68
2023-05-21T21:45:08.421Z,34.77
2023-05-21T21:50:13.726Z,35.01
2023-05-21T21:55:18.924Z,35.18
2023-05-21T22:00:26.392Z,35.02
2023-05-21T22:05:32.620Z,35.29
2023-05-21T22:10:38.333Z,34.86
2023-05-21T22:15:42.163Z,35.22
2023-05-21T22:20:47.129Z,36.30
2023-05-21T22:25:50.823Z,36.08
2023-05-21T22:30:54.410Z,36.08
2023-05-21T22:35:59.378Z,36.07
2023-05-21T22:41:03.577Z,36.79
2023-05-21T22:46:07.401Z,36.63
2023-05-21T22:51:12.411Z,36.58
2023-05-21T22:56:16.010Z,36.10
2023-05-21T23:01:19.561Z,36.38
2023-05-21T23:06:24.547Z,36.85
2023-05-21T23:11:28.259Z,37.57
2023-05-21T23:16:32.165Z,37.68
2023-05-21T23:21:37.441Z,37.36
2023-05-21T23:26:41.011Z,37.86
2023-05-21T23:31:46.659Z,37.54
2023-05-21T23:36:51.804Z,37.60
2023-05-21T23:41:55.602Z,38.09
2023-05-21T23:46:59.127Z,37.78
2023-05-21T23:52:04.272Z,37.80
2023-05-21T23:57:07.809Z,38.17
